Plymouth, Ohio
Current Conditions -  °F | °C
As of 7:52 AM on Tuesday 21 Oct 2014 (Local Time) from KMFD Reporting Station
Overcast Overcast  
Wind Chill: 41°   Ceiling: 600
Heat Index: 47°   Visibility: 7mi
Dew Point: 46°   Wind: 14mph
Humidity: 97%   Direction: 330°NNW
Pressure: 29.9"   Gusts: NA
Location:  41°N, 82.67°W
Report Text: KMFD 211152Z 33012KT 7SM BKN006 OVC010 08/08 A2990 RMK AO2 RAB00E09 CIG 003V008 SLP130 P0001 60010 70025 T00830078 10106 20083 51009
Loading
Personal Weather Stations






























Interactive Weather Map
Tropical Storm Tracking
New forecast layout! Learn more

10-Day Weather Forecast

Advertisements
Track Severe Weather on mobile